Time,TemperatureF,DewpointF,PressureIn,WindDirection,WindDirectionDegrees,WindSpeedMPH,WindSpeedGustMPH,Humidity,HourlyPrecipIn,Conditions,Clouds,dailyrainin,SolarRadiationWatts/m^2,SoftwareType,DateUTC
2013-01-15 00:04:00,27.0,20.0,-100.00,NNW,340,6.0,15.0,75,0.00,,,0.17,0.000000,,2013-01-15 05:04:00,
2013-01-15 00:12:00,27.0,20.0,-100.00,NNW,340,6.0,15.0,75,0.00,,,0.17,0.000000,,2013-01-15 05:12:00,
2013-01-15 00:33:00,27.0,20.0,-100.00,North,5,2.0,9.0,76,0.00,,,0.10,0.000000,,2013-01-15 05:33:00,
2013-01-15 00:42:00,27.0,20.0,-100.00,North,5,2.0,9.0,76,0.00,,,0.10,0.000000,,2013-01-15 05:42:00,
2013-01-15 00:53:00,27.0,20.0,-100.00,North,5,2.0,9.0,76,0.00,,,0.10,0.000000,,2013-01-15 05:53:00,
2013-01-15 01:03:00,27.0,20.0,-100.00,North,5,2.0,9.0,76,0.00,,,0.10,0.000000,,2013-01-15 06:03:00,
2013-01-15 01:12:00,27.0,20.0,-100.00,North,5,2.0,9.0,76,0.00,,,0.10,0.000000,,2013-01-15 06:12:00,
2013-01-15 01:43:00,26.0,21.0,-100.00,NNW,339,4.0,6.0,80,0.00,,,0.05,0.000000,,2013-01-15 06:43:00,
2013-01-15 01:53:00,26.0,21.0,-100.00,NNW,339,4.0,6.0,80,0.00,,,0.05,0.000000,,2013-01-15 06:53:00,
2013-01-15 02:02:00,26.0,21.0,-100.00,NNW,339,4.0,6.0,80,0.00,,,0.05,0.000000,,2013-01-15 07:02:00,
2013-01-15 02:12:00,26.0,21.0,-100.00,NNW,339,4.0,6.0,80,0.00,,,0.05,0.000000,,2013-01-15 07:12:00,
2013-01-15 02:33:00,25.0,20.0,-100.00,North,358,4.0,7.0,80,0.00,,,0.03,0.000000,,2013-01-15 07:33:00,
2013-01-15 02:43:00,25.0,20.0,-100.00,North,358,4.0,7.0,80,0.00,,,0.03,0.000000,,2013-01-15 07:43:00,
2013-01-15 02:53:00,25.0,20.0,-100.00,North,358,4.0,7.0,80,0.00,,,0.03,0.000000,,2013-01-15 07:53:00,
2013-01-15 03:02:00,25.0,20.0,-100.00,North,358,4.0,7.0,80,0.00,,,0.03,0.000000,,2013-01-15 08:02:00,
2013-01-15 03:12:00,25.0,20.0,-100.00,North,358,4.0,7.0,80,0.00,,,0.03,0.000000,,2013-01-15 08:12:00,
2013-01-15 03:43:00,25.0,21.0,-100.00,NNW,341,4.0,6.0,83,0.00,,,0.03,0.000000,,2013-01-15 08:43:00,
2013-01-15 03:53:00,25.0,21.0,-100.00,NNW,341,4.0,6.0,83,0.00,,,0.03,0.000000,,2013-01-15 08:53:00,
2013-01-15 04:02:00,25.0,21.0,-100.00,NNW,341,4.0,6.0,83,0.00,,,0.03,0.000000,,2013-01-15 09:02:00,
2013-01-15 04:12:00,25.0,21.0,-100.00,NNW,341,4.0,6.0,83,0.00,,,0.03,0.000000,,2013-01-15 09:12:00,
2013-01-15 04:43:00,24.0,20.0,-100.00,NNW,330,4.0,8.0,83,0.00,,,0.02,0.000000,,2013-01-15 09:43:00,
2013-01-15 04:52:00,24.0,20.0,-100.00,NNW,330,4.0,8.0,83,0.00,,,0.02,0.000000,,2013-01-15 09:52:00,
2013-01-15 05:02:00,24.0,20.0,-100.00,NNW,330,4.0,8.0,83,0.00,,,0.02,0.000000,,2013-01-15 10:02:00,
2013-01-15 05:12:00,24.0,20.0,-100.00,NNW,330,4.0,8.0,83,0.00,,,0.02,0.000000,,2013-01-15 10:12:00,
2013-01-15 05:33:00,23.0,20.0,-100.00,North,2,7.0,11.0,87,0.00,,,0.00,0.000000,,2013-01-15 10:33:00,
2013-01-15 05:42:00,23.0,20.0,-100.00,North,2,7.0,11.0,87,0.00,,,0.00,0.000000,,2013-01-15 10:42:00,
2013-01-15 05:52:00,23.0,20.0,-100.00,North,2,7.0,11.0,87,0.00,,,0.00,0.000000,,2013-01-15 10:52:00,
2013-01-15 06:03:00,23.0,20.0,-100.00,North,2,7.0,11.0,87,0.00,,,0.00,0.000000,,2013-01-15 11:03:00,
2013-01-15 06:12:00,23.0,20.0,-100.00,North,2,7.0,11.0,87,0.00,,,0.00,0.000000,,2013-01-15 11:12:00,
2013-01-15 06:33:00,22.0,19.0,-100.00,North,5,5.0,12.0,88,0.00,,,0.00,0.000000,,2013-01-15 11:33:00,
2013-01-15 06:43:00,22.0,19.0,-100.00,North,5,5.0,12.0,88,0.00,,,0.00,0.000000,,2013-01-15 11:43:00,
2013-01-15 06:53:00,22.0,19.0,-100.00,North,5,5.0,12.0,88,0.00,,,0.00,0.000000,,2013-01-15 11:53:00,
2013-01-15 07:03:00,22.0,19.0,-100.00,North,5,5.0,12.0,88,0.00,,,0.00,0.000000,,2013-01-15 12:03:00,
2013-01-15 07:12:00,22.0,19.0,-100.00,North,5,5.0,12.0,88,0.00,,,0.00,0.000000,,2013-01-15 12:12:00,
2013-01-15 07:33:00,21.0,19.0,-100.00,NNE,29,3.0,8.0,90,0.00,,,0.00,0.000000,,2013-01-15 12:33:00,
2013-01-15 07:43:00,21.0,19.0,-100.00,NNE,29,3.0,8.0,90,0.00,,,0.00,0.000000,,2013-01-15 12:43:00,
2013-01-15 07:53:00,21.0,19.0,-100.00,NNE,29,3.0,8.0,90,0.00,,,0.00,0.000000,,2013-01-15 12:53:00,
2013-01-15 08:03:00,21.0,19.0,-100.00,NNE,29,3.0,8.0,90,0.00,,,0.00,0.000000,,2013-01-15 13:03:00,
2013-01-15 08:12:00,21.0,19.0,-100.00,NNE,29,3.0,8.0,90,0.00,,,0.00,0.000000,,2013-01-15 13:12:00,
2013-01-15 08:43:00,21.0,20.0,-100.00,NNE,13,3.0,5.0,94,0.00,,,0.00,7.000000,,2013-01-15 13:43:00,
2013-01-15 08:53:00,21.0,20.0,-100.00,NNE,13,3.0,5.0,94,0.00,,,0.00,7.000000,,2013-01-15 13:53:00,
2013-01-15 09:03:00,21.0,20.0,-100.00,NNE,13,3.0,5.0,94,0.00,,,0.00,7.000000,,2013-01-15 14:03:00,
2013-01-15 09:13:00,21.0,20.0,-100.00,NNE,13,3.0,5.0,94,0.00,,,0.00,7.000000,,2013-01-15 14:13:00,
2013-01-15 09:33:00,23.0,19.0,-100.00,North,5,5.0,7.0,86,0.00,,,0.00,87.000000,,2013-01-15 14:33:00,
2013-01-15 09:43:00,23.0,19.0,-100.00,North,5,5.0,7.0,86,0.00,,,0.00,87.000000,,2013-01-15 14:43:00,
2013-01-15 09:54:00,23.0,19.0,-100.00,North,5,5.0,7.0,86,0.00,,,0.00,87.000000,,2013-01-15 14:54:00,
2013-01-15 10:03:00,23.0,19.0,-100.00,North,5,5.0,7.0,86,0.00,,,0.00,87.000000,,2013-01-15 15:03:00,
2013-01-15 10:13:00,23.0,19.0,-100.00,North,5,5.0,7.0,86,0.00,,,0.00,87.000000,,2013-01-15 15:13:00,
2013-01-15 10:33:00,25.0,20.0,-100.00,NNE,13,6.0,11.0,81,0.00,,,0.00,200.000000,,2013-01-15 15:33:00,
2013-01-15 10:43:00,25.0,20.0,-100.00,NNE,13,6.0,11.0,81,0.00,,,0.00,200.000000,,2013-01-15 15:43:00,
2013-01-15 10:53:00,25.0,20.0,-100.00,NNE,13,6.0,11.0,81,0.00,,,0.00,200.000000,,2013-01-15 15:53:00,
2013-01-15 11:03:00,25.0,20.0,-100.00,NNE,13,6.0,11.0,81,0.00,,,0.00,200.000000,,2013-01-15 16:03:00,
2013-01-15 11:12:00,25.0,20.0,-100.00,NNE,13,6.0,11.0,81,0.00,,,0.00,200.000000,,2013-01-15 16:12:00,
2013-01-15 11:33:00,28.0,22.0,-100.00,NNE,17,3.0,9.0,78,0.00,,,0.00,270.000000,,2013-01-15 16:33:00,
2013-01-15 11:43:00,28.0,22.0,-100.00,NNE,17,3.0,9.0,78,0.00,,,0.00,270.000000,,2013-01-15 16:43:00,
2013-01-15 11:53:00,28.0,22.0,-100.00,NNE,17,3.0,9.0,78,0.00,,,0.00,270.000000,,2013-01-15 16:53:00,
2013-01-15 12:04:00,28.0,22.0,-100.00,NNE,17,3.0,9.0,78,0.00,,,0.00,270.000000,,2013-01-15 17:04:00,
2013-01-15 12:12:00,28.0,22.0,-100.00,NNE,17,3.0,9.0,78,0.00,,,0.00,270.000000,,2013-01-15 17:12:00,
2013-01-15 12:43:00,29.0,21.0,-100.00,NNW,336,3.0,6.0,71,0.00,,,0.00,294.000000,,2013-01-15 17:43:00,
2013-01-15 12:53:00,29.0,21.0,-100.00,NNW,336,3.0,6.0,71,0.00,,,0.00,294.000000,,2013-01-15 17:53:00,
2013-01-15 13:03:00,29.0,21.0,-100.00,NNW,336,3.0,6.0,71,0.00,,,0.00,294.000000,,2013-01-15 18:03:00,
2013-01-15 13:13:00,29.0,21.0,-100.00,NNW,336,3.0,6.0,71,0.00,,,0.00,294.000000,,2013-01-15 18:13:00,
2013-01-15 13:34:00,30.0,21.0,-100.00,NE,48,2.0,8.0,69,0.00,,,0.00,264.000000,,2013-01-15 18:34:00,
2013-01-15 13:43:00,30.0,21.0,-100.00,NE,48,2.0,8.0,69,0.00,,,0.00,264.000000,,2013-01-15 18:43:00,
2013-01-15 13:54:00,30.0,21.0,-100.00,NE,48,2.0,8.0,69,0.00,,,0.00,264.000000,,2013-01-15 18:54:00,
2013-01-15 14:03:00,30.0,21.0,-100.00,NE,48,2.0,8.0,69,0.00,,,0.00,264.000000,,2013-01-15 19:03:00,
2013-01-15 14:13:00,30.0,21.0,-100.00,NE,48,2.0,8.0,69,0.00,,,0.00,264.000000,,2013-01-15 19:13:00,
2013-01-15 14:43:00,30.0,20.0,-100.00,NNW,334,4.0,7.0,66,0.00,,,0.00,177.000000,,2013-01-15 19:43:00,
2013-01-15 14:53:00,30.0,20.0,-100.00,NNW,334,4.0,7.0,66,0.00,,,0.00,177.000000,,2013-01-15 19:53:00,
2013-01-15 15:04:00,30.0,20.0,-100.00,NNW,334,4.0,7.0,66,0.00,,,0.00,177.000000,,2013-01-15 20:04:00,
2013-01-15 15:12:00,30.0,20.0,-100.00,NNW,334,4.0,7.0,66,0.00,,,0.00,177.000000,,2013-01-15 20:12:00,
2013-01-15 15:33:00,29.0,19.0,-100.00,North,3,4.0,7.0,66,0.00,,,0.00,124.000000,,2013-01-15 20:33:00,
2013-01-15 15:44:00,29.0,19.0,-100.00,North,3,4.0,7.0,66,0.00,,,0.00,124.000000,,2013-01-15 20:44:00,
2013-01-15 15:53:00,29.0,19.0,-100.00,North,3,4.0,7.0,66,0.00,,,0.00,124.000000,,2013-01-15 20:53:00,
2013-01-15 16:03:00,29.0,19.0,-100.00,North,3,4.0,7.0,66,0.00,,,0.00,124.000000,,2013-01-15 21:03:00,
2013-01-15 16:13:00,29.0,19.0,-100.00,North,3,4.0,7.0,66,0.00,,,0.00,124.000000,,2013-01-15 21:13:00,
2013-01-15 16:43:00,29.0,19.0,-100.00,North,6,2.0,6.0,67,0.00,,,0.00,66.000000,,2013-01-15 21:43:00,
2013-01-15 16:53:00,29.0,19.0,-100.00,North,6,2.0,6.0,67,0.00,,,0.00,66.000000,,2013-01-15 21:53:00,
2013-01-15 17:03:00,29.0,19.0,-100.00,North,6,2.0,6.0,67,0.00,,,0.00,66.000000,,2013-01-15 22:03:00,
2013-01-15 17:12:00,29.0,19.0,-100.00,North,6,2.0,6.0,67,0.00,,,0.00,66.000000,,2013-01-15 22:12:00,
2013-01-15 17:43:00,28.0,20.0,-100.00,North,349,3.0,5.0,70,0.00,,,0.00,15.000000,,2013-01-15 22:43:00,
2013-01-15 17:53:00,28.0,20.0,-100.00,North,349,3.0,5.0,70,0.00,,,0.00,15.000000,,2013-01-15 22:53:00,
2013-01-15 18:03:00,28.0,20.0,-100.00,North,349,3.0,5.0,70,0.00,,,0.00,15.000000,,2013-01-15 23:03:00,
2013-01-15 18:13:00,28.0,20.0,-100.00,North,349,3.0,5.0,70,0.00,,,0.00,15.000000,,2013-01-15 23:13:00,
2013-01-15 18:43:00,27.0,19.0,-100.00,NE,53,3.0,5.0,72,0.00,,,0.00,0.000000,,2013-01-15 23:43:00,
2013-01-15 18:53:00,27.0,19.0,-100.00,NE,53,3.0,5.0,72,0.00,,,0.00,0.000000,,2013-01-15 23:53:00,
2013-01-15 19:03:00,27.0,19.0,-100.00,NE,53,3.0,5.0,72,0.00,,,0.00,0.000000,,2013-01-16 00:03:00,
2013-01-15 19:13:00,27.0,19.0,-100.00,NE,53,3.0,5.0,72,0.00,,,0.00,0.000000,,2013-01-16 00:13:00,
2013-01-15 19:43:00,26.0,21.0,-100.00,SE,137,2.0,6.0,80,0.00,,,0.00,0.000000,,2013-01-16 00:43:00,
2013-01-15 19:53:00,26.0,21.0,-100.00,SE,137,2.0,6.0,80,0.00,,,0.00,0.000000,,2013-01-16 00:53:00,
2013-01-15 20:03:00,26.0,21.0,-100.00,SE,137,2.0,6.0,80,0.00,,,0.00,0.000000,,2013-01-16 01:03:00,
2013-01-15 20:12:00,26.0,21.0,-100.00,SE,137,2.0,6.0,80,0.00,,,0.00,0.000000,,2013-01-16 01:12:00,
2013-01-15 20:33:00,26.0,22.0,-100.00,East,80,2.0,4.0,85,0.00,,,0.00,0.000000,,2013-01-16 01:33:00,
2013-01-15 20:43:00,26.0,22.0,-100.00,East,80,2.0,4.0,85,0.00,,,0.00,0.000000,,2013-01-16 01:43:00,
2013-01-15 20:53:00,26.0,22.0,-100.00,East,80,2.0,4.0,85,0.00,,,0.00,0.000000,,2013-01-16 01:53:00,
2013-01-15 21:03:00,26.0,22.0,-100.00,East,80,2.0,4.0,85,0.00,,,0.00,0.000000,,2013-01-16 02:03:00,
2013-01-15 21:12:00,26.0,22.0,-100.00,East,80,2.0,4.0,85,0.00,,,0.00,0.000000,,2013-01-16 02:12:00,
2013-01-15 21:43:00,26.0,22.0,-100.00,SE,140,2.0,5.0,83,0.00,,,0.00,0.000000,,2013-01-16 02:43:00,
2013-01-15 21:53:00,26.0,22.0,-100.00,SE,140,2.0,5.0,83,0.00,,,0.00,0.000000,,2013-01-16 02:53:00,
2013-01-15 22:03:00,26.0,22.0,-100.00,SE,140,2.0,5.0,83,0.00,,,0.00,0.000000,,2013-01-16 03:03:00,
2013-01-15 22:12:00,26.0,22.0,-100.00,SE,140,2.0,5.0,83,0.00,,,0.00,0.000000,,2013-01-16 03:12:00,
2013-01-15 22:33:00,26.0,21.0,-100.00,ESE,102,3.0,6.0,80,0.00,,,0.00,0.000000,,2013-01-16 03:33:00,
2013-01-15 22:43:00,26.0,21.0,-100.00,ESE,102,3.0,6.0,80,0.00,,,0.00,0.000000,,2013-01-16 03:43:00,
2013-01-15 22:53:00,26.0,21.0,-100.00,ESE,102,3.0,6.0,80,0.00,,,0.00,0.000000,,2013-01-16 03:53:00,
2013-01-15 23:02:00,26.0,21.0,-100.00,ESE,102,3.0,6.0,80,0.00,,,0.00,0.000000,,2013-01-16 04:02:00,
2013-01-15 23:12:00,26.0,21.0,-100.00,ESE,102,3.0,6.0,80,0.00,,,0.00,0.000000,,2013-01-16 04:12:00,
2013-01-15 23:33:00,26.0,21.0,-100.00,East,90,4.0,8.0,82,0.00,,,0.00,0.000000,,2013-01-16 04:33:00,
2013-01-15 23:42:00,26.0,21.0,-100.00,East,90,4.0,8.0,82,0.00,,,0.00,0.000000,,2013-01-16 04:42:00,
2013-01-15 23:53:00,26.0,21.0,-100.00,East,90,4.0,8.0,82,0.00,,,0.00,0.000000,,2013-01-16 04:53:00,